Douglas Observed Data For Previous 48 Hours

Caption
Day and Hour Reservoir Elevation (behind dam)* Tailwater Elevation (below dam)* Average Hourly Discharge*
6/20/2018 2 AM EDT 993.67 873.46 9,294
6/20/2018 3 AM EDT 993.68 871.64 4,879
6/20/2018 4 AM EDT 993.75 869.48 112
6/20/2018 5 AM EDT 993.75 868.80 0
6/20/2018 6 AM EDT 993.76 868.48 17
6/20/2018 7 AM EDT 993.76 871.01 4,285
6/20/2018 8 AM EDT 993.76 871.30 4,446
6/20/2018 9 AM EDT 993.76 871.37 4,446
6/20/2018 10 AM EDT 993.76 871.61 4,508
6/20/2018 11 AM EDT 993.76 873.48 9,298
6/20/2018 12 PM EDT 993.76 873.71 10,214
6/20/2018 1 PM EDT 993.75 873.73 10,226
6/20/2018 2 PM EDT 993.74 873.76 10,252
6/20/2018 3 PM EDT 993.67 873.77 10,248
6/20/2018 4 PM EDT 993.67 873.77 10,254
6/20/2018 5 PM EDT 993.66 873.76 10,228
6/20/2018 6 PM EDT 993.65 873.78 10,275
6/20/2018 7 PM EDT 993.65 873.75 10,245
6/20/2018 8 PM EDT 993.65 873.75 10,268
6/20/2018 9 PM EDT 993.58 873.76 10,257
6/20/2018 10 PM EDT 993.57 873.76 10,260
6/20/2018 11 PM EDT 993.60 872.04 7,357
6/21/2018 12 AM EDT 993.62 871.54 4,829
6/21/2018 1 AM EDT 993.62 871.44 4,818
6/21/2018 2 AM EDT 993.64 869.42 111
6/21/2018 3 AM EDT 993.66 868.78 0
6/21/2018 4 AM EDT 993.67 868.55 18
6/21/2018 5 AM EDT 993.66 871.00 4,350
6/21/2018 6 AM EDT 993.67 871.31 4,429
6/21/2018 7 AM EDT 993.67 871.38 4,455
6/21/2018 8 AM EDT 993.67 871.47 4,872
6/21/2018 9 AM EDT 993.68 871.47 4,896
6/21/2018 10 AM EDT 993.71 871.51 4,905
6/21/2018 11 AM EDT 993.67 873.45 9,273
6/21/2018 12 PM EDT 993.66 873.70 10,265
6/21/2018 1 PM EDT 993.66 873.76 10,369
6/21/2018 2 PM EDT 993.65 873.75 10,362
6/21/2018 3 PM EDT 993.65 873.77 10,327
6/21/2018 4 PM EDT 993.61 873.76 10,346
6/21/2018 5 PM EDT 993.58 873.76 10,340
6/21/2018 6 PM EDT 993.58 873.78 10,349
6/21/2018 7 PM EDT 993.56 873.74 10,326
6/21/2018 8 PM EDT 993.56 873.76 10,313
6/21/2018 9 PM EDT - 999.00 873.77 10,340
6/21/2018 10 PM EDT - 999.00 - 999.00 10,329
6/21/2018 11 PM EDT 993.55 873.37 10,010
6/22/2018 12 AM EDT 993.54 873.29 9,352
6/22/2018 1 AM EDT 993.55 871.70 4,970

Elevations are in feet above sea level. Discharges are in cubic feet per second and are reported at the end of the hour.